Time;durP1;ratioP1;P1;durP2;ratioP2;P2;SDS_P1;SDS_P2;PMS_P1;PMS_P2;Temp;Humidity;BMP_temperature;BMP_pressure;BME280_temperature;BME280_humidity;BME280_pressure;Samples;Min_cycle;Max_cycle;Signal;HPM_P1;HPM_P2
2023/01/26 00:01:55;;;;;;;51.53;27.87;;;;;;;;;;5018694;28;20212;-64
2023/01/26 00:04:20;;;;;;;49.87;27.67;;;;;;;;;;5012382;28;20571;-64
2023/01/26 00:06:45;;;;;;;50.30;28.87;;;;;;;;;;5022440;28;20220;-64
2023/01/26 00:09:12;;;;;;;47.83;27.13;;;;;;;;;;5031616;28;20240;-64
2023/01/26 00:11:38;;;;;;;48.20;27.53;;;;;;;;;;5032137;28;20641;-64
2023/01/26 00:14:03;;;;;;;49.67;28.60;;;;;;;;;;5025138;28;20220;-63
2023/01/26 00:16:28;;;;;;;53.33;29.63;;;;;;;;;;5012140;28;20219;-64
2023/01/26 00:18:54;;;;;;;50.80;27.93;;;;;;;;;;5005343;28;20220;-64
2023/01/26 00:21:19;;;;;;;47.13;26.30;;;;;;;;;;5002372;28;20514;-64
2023/01/26 00:23:45;;;;;;;45.90;27.00;;;;;;;;;;5002925;28;20215;-64
2023/01/26 00:26:12;;;;;;;48.33;27.63;;;;;;;;;;5016253;28;20587;-64
2023/01/26 00:28:37;;;;;;;45.87;25.87;;;;;;;;;;5004339;28;20261;-64
2023/01/26 00:31:03;;;;;;;47.50;27.80;;;;;;;;;;5021750;28;20219;-64
2023/01/26 00:33:28;;;;;;;49.27;27.80;;;;;;;;;;5018406;28;20737;-64
2023/01/26 00:35:54;;;;;;;49.97;28.03;;;;;;;;;;4999458;28;20690;-64
2023/01/26 00:38:19;;;;;;;47.70;26.57;;;;;;;;;;4993881;28;20213;-64
2023/01/26 00:40:44;;;;;;;48.17;27.17;;;;;;;;;;4998028;28;20613;-64
2023/01/26 00:43:10;;;;;;;45.90;27.47;;;;;;;;;;5002805;28;20220;-64
2023/01/26 00:45:35;;;;;;;48.03;26.80;;;;;;;;;;5007088;28;20216;-64
2023/01/26 00:48:00;;;;;;;46.53;27.03;;;;;;;;;;5006394;28;20623;-64
2023/01/26 00:50:26;;;;;;;44.20;26.53;;;;;;;;;;5007757;28;20251;-64
2023/01/26 00:52:52;;;;;;;51.70;28.23;;;;;;;;;;5011818;28;20216;-64
2023/01/26 00:55:18;;;;;;;49.77;27.47;;;;;;;;;;5005856;28;20266;-64
2023/01/26 00:57:43;;;;;;;46.33;26.70;;;;;;;;;;4998618;28;20220;-64
2023/01/26 01:00:12;;;;;;;44.63;26.03;;;;;;;;;;4998094;28;20581;-65
2023/01/26 01:02:37;;;;;;;43.57;24.97;;;;;;;;;;5003521;28;20634;-64
2023/01/26 01:05:02;;;;;;;46.10;26.80;;;;;;;;;;5025026;28;20290;-64
2023/01/26 01:07:28;;;;;;;47.90;27.00;;;;;;;;;;5010023;28;20234;-64
2023/01/26 01:09:53;;;;;;;43.10;24.73;;;;;;;;;;5006705;28;20722;-64
2023/01/26 01:12:18;;;;;;;46.37;26.87;;;;;;;;;;5018871;28;20224;-64
2023/01/26 01:14:44;;;;;;;42.77;25.80;;;;;;;;;;5013675;28;20274;-64
2023/01/26 01:17:09;;;;;;;43.37;25.07;;;;;;;;;;5025511;28;20212;-64
2023/01/26 01:19:34;;;;;;;42.97;24.90;;;;;;;;;;5019969;28;20207;-64
2023/01/26 01:21:59;;;;;;;43.23;25.03;;;;;;;;;;5017174;28;20400;-64
2023/01/26 01:24:25;;;;;;;42.43;25.93;;;;;;;;;;5017357;28;20215;-64
2023/01/26 01:26:50;;;;;;;42.30;24.40;;;;;;;;;;5010524;28;20243;-64
2023/01/26 01:29:15;;;;;;;46.43;27.07;;;;;;;;;;4988128;28;20753;-64
2023/01/26 01:31:42;;;;;;;44.30;25.77;;;;;;;;;;5006121;28;20216;-64
2023/01/26 01:34:07;;;;;;;46.00;25.17;;;;;;;;;;4987602;28;20221;-64
2023/01/26 01:36:32;;;;;;;42.07;23.73;;;;;;;;;;5005757;28;20621;-64
2023/01/26 01:38:58;;;;;;;42.33;24.67;;;;;;;;;;5005544;28;20869;-64
2023/01/26 01:41:23;;;;;;;43.40;24.57;;;;;;;;;;5002836;28;20217;-64
2023/01/26 01:43:49;;;;;;;37.03;22.80;;;;;;;;;;4997924;28;20807;-64
2023/01/26 01:46:29;;;;;;;42.27;24.57;;;;;;;;;;4996902;28;20634;-64
2023/01/26 01:48:54;;;;;;;41.90;24.03;;;;;;;;;;5013738;28;20630;-64
2023/01/26 01:51:27;;;;;;;40.37;23.80;;;;;;;;;;5010199;28;20223;-64
2023/01/26 01:53:52;;;;;;;41.40;23.57;;;;;;;;;;4986803;28;20228;-64
2023/01/26 01:56:20;;;;;;;39.77;23.50;;;;;;;;;;4986944;28;20243;-64
2023/01/26 01:58:46;;;;;;;38.17;22.60;;;;;;;;;;5005564;28;20224;-64
2023/01/26 02:01:11;;;;;;;38.77;22.87;;;;;;;;;;4987168;28;20212;-64
2023/01/26 02:03:36;;;;;;;42.63;22.93;;;;;;;;;;5003678;28;20216;-64
2023/01/26 02:06:04;;;;;;;39.30;23.03;;;;;;;;;;4979869;28;20215;-64
2023/01/26 02:08:32;;;;;;;36.90;22.50;;;;;;;;;;4988943;28;20224;-64
2023/01/26 02:10:58;;;;;;;39.47;22.40;;;;;;;;;;4999066;28;20365;-64
2023/01/26 02:13:23;;;;;;;36.70;21.00;;;;;;;;;;5003939;28;20220;-64
2023/01/26 02:15:49;;;;;;;37.23;22.03;;;;;;;;;;5003410;28;20212;-64
2023/01/26 02:18:15;;;;;;;35.20;20.50;;;;;;;;;;5004629;28;20767;-64
2023/01/26 02:20:40;;;;;;;33.53;20.33;;;;;;;;;;5003800;28;20222;-64
2023/01/26 02:23:10;;;;;;;34.40;20.87;;;;;;;;;;5004585;28;20300;-64
2023/01/26 02:25:39;;;;;;;33.77;21.10;;;;;;;;;;5003687;28;20285;-64
2023/01/26 02:28:04;;;;;;;33.67;20.07;;;;;;;;;;4996091;28;20221;-64
2023/01/26 02:30:29;;;;;;;31.07;19.67;;;;;;;;;;4997568;28;20271;-65
2023/01/26 02:32:55;;;;;;;35.93;21.60;;;;;;;;;;4996014;28;20302;-64
2023/01/26 02:35:20;;;;;;;36.90;21.03;;;;;;;;;;5003497;28;20606;-64
2023/01/26 02:37:45;;;;;;;34.07;21.30;;;;;;;;;;5005191;28;20231;-64
2023/01/26 02:40:13;;;;;;;33.97;19.47;;;;;;;;;;5004254;28;20247;-64
2023/01/26 02:42:40;;;;;;;34.37;20.70;;;;;;;;;;5003288;28;20208;-64
2023/01/26 02:45:05;;;;;;;32.07;19.80;;;;;;;;;;5003178;28;20217;-64
2023/01/26 02:47:31;;;;;;;30.27;18.97;;;;;;;;;;5004616;28;20218;-64
2023/01/26 02:49:57;;;;;;;31.70;19.37;;;;;;;;;;4999746;28;20200;-64
2023/01/26 02:52:24;;;;;;;33.33;20.23;;;;;;;;;;4995927;28;20216;-64
2023/01/26 02:55:21;;;;;;;33.27;19.97;;;;;;;;;;4996139;28;20318;-64
2023/01/26 02:57:47;;;;;;;32.37;19.93;;;;;;;;;;5022044;28;20306;-64
2023/01/26 03:00:13;;;;;;;34.27;20.60;;;;;;;;;;5023045;28;20290;-64
2023/01/26 03:02:39;;;;;;;32.33;19.70;;;;;;;;;;5006336;28;20220;-64
2023/01/26 03:05:04;;;;;;;30.83;19.23;;;;;;;;;;5002381;28;20678;-64
2023/01/26 03:07:30;;;;;;;32.17;19.60;;;;;;;;;;4999048;28;20236;-64
2023/01/26 03:09:57;;;;;;;31.23;18.80;;;;;;;;;;5009390;28;20205;-64
2023/01/26 03:12:22;;;;;;;31.23;19.57;;;;;;;;;;4992838;28;20215;-64
2023/01/26 03:15:33;;;;;;;28.90;18.07;;;;;;;;;;5006883;28;20216;-64
2023/01/26 03:17:33;;;;;;;30.67;19.30;;;;;;;;;;5012624;28;20746;-64
2023/01/26 03:28:09;;;;;;;30.67;18.43;;;;;;;;;;4993656;28;20290;-64
2023/01/26 03:30:34;;;;;;;27.93;17.67;;;;;;;;;;4993988;28;20560;-64
2023/01/26 03:33:00;;;;;;;28.90;17.13;;;;;;;;;;4993182;28;20220;-65
2023/01/26 03:35:25;;;;;;;28.47;17.97;;;;;;;;;;4993610;28;20209;-64
2023/01/26 03:37:53;;;;;;;27.07;16.93;;;;;;;;;;4992676;28;20222;-64
2023/01/26 03:56:45;;;;;;;26.67;17.10;;;;;;;;;;5012823;28;20300;-65
2023/01/26 03:59:14;;;;;;;26.40;16.60;;;;;;;;;;5012526;28;20291;-64
2023/01/26 04:01:40;;;;;;;24.67;15.63;;;;;;;;;;5002388;28;20213;-67
2023/01/26 04:09:33;;;;;;;23.77;15.73;;;;;;;;;;5012640;28;20931;-68
2023/01/26 04:11:58;;;;;;;22.40;14.70;;;;;;;;;;5005727;28;20725;-68
2023/01/26 04:22:42;;;;;;;21.63;13.50;;;;;;;;;;5020911;28;20568;-69
2023/01/26 04:25:08;;;;;;;18.60;12.13;;;;;;;;;;5021485;28;20738;-68
2023/01/26 04:27:33;;;;;;;19.33;12.77;;;;;;;;;;5004485;28;20334;-68
2023/01/26 04:29:59;;;;;;;15.87;10.50;;;;;;;;;;4996555;28;20208;-68
2023/01/26 04:32:26;;;;;;;15.97;10.80;;;;;;;;;;5013494;28;20208;-69
2023/01/26 04:34:51;;;;;;;17.67;11.27;;;;;;;;;;5004861;28;20314;-68
2023/01/26 04:37:16;;;;;;;16.43;11.03;;;;;;;;;;5017740;28;20303;-68
2023/01/26 04:39:41;;;;;;;18.40;11.80;;;;;;;;;;5002996;28;20561;-68
2023/01/26 04:42:07;;;;;;;15.93;10.53;;;;;;;;;;5001810;28;21196;-69
2023/01/26 04:44:32;;;;;;;15.97;10.70;;;;;;;;;;5012868;28;20815;-69
2023/01/26 04:46:57;;;;;;;15.30;10.57;;;;;;;;;;5022328;28;20216;-69
2023/01/26 04:49:23;;;;;;;15.00;9.83;;;;;;;;;;5004186;28;20532;-69
2023/01/26 04:51:48;;;;;;;16.63;11.07;;;;;;;;;;5008487;28;20224;-69
2023/01/26 04:54:13;;;;;;;16.73;11.20;;;;;;;;;;5009637;28;20295;-68
2023/01/26 04:56:38;;;;;;;17.80;11.07;;;;;;;;;;5012824;28;20208;-69
2023/01/26 04:59:05;;;;;;;16.80;10.87;;;;;;;;;;5009238;28;20219;-69
2023/01/26 05:01:30;;;;;;;17.30;11.07;;;;;;;;;;5002923;28;20266;-69
2023/01/26 05:03:57;;;;;;;16.47;10.90;;;;;;;;;;5002243;28;20224;-68
2023/01/26 05:06:23;;;;;;;15.57;10.97;;;;;;;;;;5004642;28;20212;-68
2023/01/26 05:08:48;;;;;;;17.40;11.50;;;;;;;;;;4987430;28;20825;-68
2023/01/26 05:11:13;;;;;;;16.83;11.07;;;;;;;;;;4982662;28;20228;-69
2023/01/26 05:13:40;;;;;;;17.33;11.10;;;;;;;;;;4981934;28;20428;-69
2023/01/26 05:16:06;;;;;;;18.93;11.10;;;;;;;;;;4983058;28;20593;-68
2023/01/26 05:18:31;;;;;;;18.67;11.67;;;;;;;;;;4987135;28;20220;-69
2023/01/26 05:20:57;;;;;;;17.80;11.27;;;;;;;;;;4997733;28;20638;-69
2023/01/26 05:23:22;;;;;;;16.57;10.77;;;;;;;;;;4999643;28;20240;-68
2023/01/26 05:25:47;;;;;;;14.77;10.07;;;;;;;;;;4992635;28;20217;-68
2023/01/26 05:28:13;;;;;;;15.80;10.37;;;;;;;;;;4983369;28;20780;-68
2023/01/26 05:30:38;;;;;;;15.80;9.77;;;;;;;;;;4998238;28;20208;-69
2023/01/26 05:33:04;;;;;;;13.67;9.53;;;;;;;;;;5002369;28;20714;-69
2023/01/26 05:35:29;;;;;;;14.83;9.73;;;;;;;;;;4985217;28;20267;-69
2023/01/26 05:37:55;;;;;;;14.90;9.63;;;;;;;;;;4981277;28;20275;-68
2023/01/26 05:40:20;;;;;;;14.50;9.27;;;;;;;;;;4981684;28;20216;-69
2023/01/26 05:42:46;;;;;;;13.30;9.33;;;;;;;;;;4979481;28;20634;-69
2023/01/26 05:45:11;;;;;;;16.20;10.97;;;;;;;;;;5001615;28;20220;-70
2023/01/26 05:47:36;;;;;;;17.53;12.53;;;;;;;;;;4999007;28;20209;-69
2023/01/26 05:50:02;;;;;;;15.47;10.70;;;;;;;;;;4985972;28;20647;-68
2023/01/26 05:52:27;;;;;;;16.53;10.37;;;;;;;;;;4989065;28;20247;-68
2023/01/26 05:54:53;;;;;;;13.87;9.00;;;;;;;;;;4995723;28;20245;-67
2023/01/26 05:57:18;;;;;;;14.80;10.53;;;;;;;;;;5002326;28;20277;-67
2023/01/26 05:59:43;;;;;;;14.53;9.93;;;;;;;;;;4998961;28;20694;-68
2023/01/26 06:02:10;;;;;;;14.43;10.07;;;;;;;;;;4983745;28;20313;-68
2023/01/26 06:04:35;;;;;;;15.10;9.47;;;;;;;;;;4986905;28;20209;-68
2023/01/26 06:07:01;;;;;;;15.40;10.40;;;;;;;;;;4985282;28;20217;-68
2023/01/26 06:09:26;;;;;;;15.83;9.93;;;;;;;;;;5002352;28;20311;-68
2023/01/26 06:11:51;;;;;;;15.83;10.50;;;;;;;;;;5014366;28;20303;-68
2023/01/26 06:14:17;;;;;;;15.83;10.53;;;;;;;;;;5004723;28;20308;-68
2023/01/26 06:16:42;;;;;;;17.20;10.70;;;;;;;;;;4995170;28;20746;-68
2023/01/26 06:19:08;;;;;;;15.20;9.90;;;;;;;;;;4994882;28;20221;-66
2023/01/26 06:21:33;;;;;;;14.13;10.07;;;;;;;;;;4994653;28;20213;-67
2023/01/26 06:23:58;;;;;;;14.17;9.83;;;;;;;;;;4994948;28;20221;-65
2023/01/26 06:26:24;;;;;;;15.30;10.57;;;;;;;;;;4994680;28;20213;-69
2023/01/26 06:28:50;;;;;;;16.47;11.60;;;;;;;;;;4993801;28;20424;-69
2023/01/26 06:31:16;;;;;;;12.90;9.60;;;;;;;;;;4999506;28;20667;-68
2023/01/26 06:33:41;;;;;;;14.90;10.10;;;;;;;;;;5003599;28;20232;-68
2023/01/26 06:36:08;;;;;;;15.30;10.60;;;;;;;;;;5003028;28;20197;-69
2023/01/26 06:38:34;;;;;;;15.77;10.53;;;;;;;;;;4987589;28;20221;-69
2023/01/26 06:41:01;;;;;;;13.53;9.07;;;;;;;;;;4984781;28;20591;-68
2023/01/26 06:43:28;;;;;;;13.50;9.23;;;;;;;;;;5003117;28;20219;-69
2023/01/26 06:45:54;;;;;;;12.63;8.90;;;;;;;;;;5004559;28;20300;-68
2023/01/26 06:48:20;;;;;;;13.33;9.60;;;;;;;;;;5001369;28;20695;-68
2023/01/26 06:50:45;;;;;;;13.47;9.43;;;;;;;;;;5000862;28;20213;-69
2023/01/26 06:53:24;;;;;;;13.93;9.33;;;;;;;;;;5003507;28;20677;-69
2023/01/26 06:55:50;;;;;;;13.77;9.88;;;;;;;;;;5010173;28;20485;-68
2023/01/26 06:58:16;;;;;;;14.47;9.17;;;;;;;;;;5013703;28;20220;-66
2023/01/26 07:00:41;;;;;;;12.97;9.13;;;;;;;;;;5003841;28;20209;-67
2023/01/26 07:03:07;;;;;;;13.80;8.87;;;;;;;;;;4997538;28;20217;-67
2023/01/26 07:05:33;;;;;;;14.17;8.90;;;;;;;;;;4994045;28;20213;-67
2023/01/26 07:08:01;;;;;;;13.00;8.77;;;;;;;;;;5013895;28;20251;-67
2023/01/26 07:10:26;;;;;;;13.40;9.17;;;;;;;;;;4999709;28;20206;-66
2023/01/26 07:12:51;;;;;;;13.17;9.37;;;;;;;;;;4999778;28;20216;-66
2023/01/26 07:15:17;;;;;;;15.13;8.80;;;;;;;;;;4995141;28;20217;-66
2023/01/26 07:17:42;;;;;;;12.47;8.73;;;;;;;;;;5003052;28;20223;-66
2023/01/26 07:20:08;;;;;;;13.27;9.33;;;;;;;;;;5010178;28;20213;-69
2023/01/26 07:22:33;;;;;;;12.50;8.43;;;;;;;;;;5009481;28;20216;-68
2023/01/26 07:24:58;;;;;;;13.70;9.33;;;;;;;;;;5003786;28;20586;-66
2023/01/26 07:27:24;;;;;;;14.17;9.37;;;;;;;;;;5012290;28;20212;-68
2023/01/26 07:29:50;;;;;;;13.13;9.50;;;;;;;;;;5013613;28;20216;-67
2023/01/26 07:32:15;;;;;;;12.10;8.47;;;;;;;;;;5012229;28;20216;-67
2023/01/26 07:34:41;;;;;;;12.27;8.77;;;;;;;;;;5013325;28;20685;-67
2023/01/26 07:37:06;;;;;;;13.13;9.43;;;;;;;;;;5012817;28;20217;-67
2023/01/26 07:39:31;;;;;;;12.97;9.40;;;;;;;;;;5011943;28;20213;-67
2023/01/26 07:41:56;;;;;;;13.27;9.70;;;;;;;;;;5012991;28;20204;-67
2023/01/26 07:44:22;;;;;;;13.20;9.33;;;;;;;;;;5012858;28;20570;-67
2023/01/26 07:46:47;;;;;;;12.93;9.13;;;;;;;;;;5012545;28;20247;-67
2023/01/26 07:49:12;;;;;;;13.33;9.40;;;;;;;;;;5012642;28;20299;-67
2023/01/26 07:51:38;;;;;;;14.70;10.20;;;;;;;;;;4995795;28;20217;-67
2023/01/26 07:54:04;;;;;;;13.43;9.43;;;;;;;;;;4992991;28;20229;-67
2023/01/26 07:56:29;;;;;;;13.13;9.43;;;;;;;;;;4993174;28;20241;-67
2023/01/26 07:58:55;;;;;;;13.37;9.07;;;;;;;;;;4993117;28;20222;-67
2023/01/26 08:01:20;;;;;;;14.23;10.03;;;;;;;;;;4992689;28;20221;-66
2023/01/26 08:03:48;;;;;;;15.63;10.73;;;;;;;;;;4987395;28;20221;-66
2023/01/26 08:06:13;;;;;;;16.13;10.47;;;;;;;;;;4998656;28;20205;-66
2023/01/26 08:08:40;;;;;;;15.10;9.90;;;;;;;;;;5006797;28;20236;-66
2023/01/26 08:11:05;;;;;;;14.97;9.20;;;;;;;;;;5012070;28;20746;-67
2023/01/26 08:13:30;;;;;;;14.70;9.20;;;;;;;;;;5014263;28;20216;-66
2023/01/26 08:15:59;;;;;;;14.07;8.97;;;;;;;;;;5032393;28;20218;-66
2023/01/26 08:18:25;;;;;;;14.67;9.23;;;;;;;;;;5031621;28;20267;-66
2023/01/26 08:20:51;;;;;;;12.77;8.43;;;;;;;;;;5027660;28;20692;-66
2023/01/26 08:23:16;;;;;;;12.40;8.17;;;;;;;;;;5011432;28;20220;-66
2023/01/26 08:25:42;;;;;;;13.83;9.07;;;;;;;;;;5012592;28;20545;-66
2023/01/26 08:28:08;;;;;;;13.83;7.80;;;;;;;;;;5011636;28;20216;-66
2023/01/26 08:30:33;;;;;;;13.97;8.70;;;;;;;;;;5012447;28;20565;-66
2023/01/26 08:32:58;;;;;;;15.63;9.10;;;;;;;;;;5012003;28;20231;-66
2023/01/26 08:35:23;;;;;;;17.03;9.50;;;;;;;;;;5011244;28;20240;-66
2023/01/26 08:37:49;;;;;;;16.83;9.30;;;;;;;;;;5012125;28;20554;-66
2023/01/26 08:40:15;;;;;;;15.07;9.27;;;;;;;;;;5011947;28;20216;-67
2023/01/26 08:42:40;;;;;;;18.60;9.27;;;;;;;;;;5011894;28;20741;-67
2023/01/26 08:45:06;;;;;;;19.40;10.10;;;;;;;;;;5011677;28;20303;-67
2023/01/26 08:47:31;;;;;;;16.57;9.10;;;;;;;;;;5012152;28;20303;-67
2023/01/26 08:49:56;;;;;;;18.47;9.53;;;;;;;;;;4997222;28;20222;-66
2023/01/26 08:52:21;;;;;;;15.80;9.57;;;;;;;;;;5031173;28;20732;-66
2023/01/26 08:54:47;;;;;;;21.10;11.27;;;;;;;;;;5031931;28;20263;-66
2023/01/26 08:57:12;;;;;;;15.77;9.77;;;;;;;;;;5031172;28;20315;-67
2023/01/26 08:59:37;;;;;;;15.97;9.07;;;;;;;;;;5031866;28;20236;-67
2023/01/26 09:02:03;;;;;;;17.53;9.67;;;;;;;;;;5030989;28;20670;-67
2023/01/26 09:04:28;;;;;;;17.03;9.20;;;;;;;;;;5032992;28;20220;-67
2023/01/26 09:06:53;;;;;;;14.63;9.40;;;;;;;;;;5024993;28;20216;-67
2023/01/26 09:09:19;;;;;;;15.97;9.30;;;;;;;;;;5013642;28;20267;-67
2023/01/26 09:11:44;;;;;;;16.47;10.03;;;;;;;;;;5015993;28;20295;-68
2023/01/26 09:14:09;;;;;;;17.00;10.07;;;;;;;;;;5023262;28;20266;-69
2023/01/26 09:16:34;;;;;;;16.37;9.53;;;;;;;;;;5035380;28;20601;-68
2023/01/26 09:19:00;;;;;;;20.23;10.47;;;;;;;;;;5035160;28;20207;-69
2023/01/26 09:21:25;;;;;;;17.83;10.17;;;;;;;;;;5030245;28;20224;-69
2023/01/26 09:23:51;;;;;;;20.87;11.03;;;;;;;;;;5035189;28;20216;-66
2023/01/26 09:26:16;;;;;;;17.87;9.63;;;;;;;;;;5034968;28;20215;-66
2023/01/26 09:28:41;;;;;;;23.33;11.83;;;;;;;;;;5035618;28;20262;-66
2023/01/26 09:31:07;;;;;;;20.77;10.70;;;;;;;;;;5034675;28;20712;-66
2023/01/26 09:33:33;;;;;;;22.33;11.03;;;;;;;;;;5034759;28;20294;-66
2023/01/26 09:36:05;;;;;;;21.23;11.40;;;;;;;;;;5035507;28;20239;-66
2023/01/26 09:38:30;;;;;;;19.27;10.10;;;;;;;;;;5034723;28;20218;-66
2023/01/26 09:40:55;;;;;;;17.50;9.93;;;;;;;;;;5035079;28;20220;-66
2023/01/26 09:43:32;;;;;;;17.50;10.03;;;;;;;;;;5034723;28;20560;-66
2023/01/26 09:46:00;;;;;;;22.73;11.83;;;;;;;;;;5034653;28;20662;-66
2023/01/26 09:48:35;;;;;;;17.10;9.83;;;;;;;;;;5034352;28;20290;-66
2023/01/26 09:51:02;;;;;;;17.53;10.40;;;;;;;;;;5034753;28;20219;-66
2023/01/26 09:53:33;;;;;;;13.40;8.40;;;;;;;;;;5033143;28;20238;-65
2023/01/26 09:55:58;;;;;;;22.03;15.67;;;;;;;;;;5028592;28;20248;-67
2023/01/26 09:58:27;;;;;;;56.97;47.03;;;;;;;;;;5013965;28;20298;-67
2023/01/26 10:00:54;;;;;;;26.27;23.17;;;;;;;;;;5015081;28;20279;-66
2023/01/26 10:03:24;;;;;;;23.93;17.13;;;;;;;;;;5014395;28;20227;-67
2023/01/26 10:05:50;;;;;;;19.47;10.67;;;;;;;;;;5014318;28;20817;-67
2023/01/26 10:08:17;;;;;;;15.97;9.00;;;;;;;;;;5014294;28;20228;-66
2023/01/26 10:10:44;;;;;;;23.03;14.87;;;;;;;;;;5015044;28;20339;-66
2023/01/26 10:13:11;;;;;;;19.13;11.53;;;;;;;;;;4996117;28;20252;-67
2023/01/26 10:15:37;;;;;;;18.70;10.43;;;;;;;;;;4995803;28;20289;-67
2023/01/26 10:18:05;;;;;;;17.17;8.80;;;;;;;;;;4996324;28;20709;-67
2023/01/26 10:20:31;;;;;;;17.47;9.37;;;;;;;;;;4995667;28;20674;-67
2023/01/26 10:22:58;;;;;;;21.53;11.47;;;;;;;;;;5013053;28;20213;-67
2023/01/26 10:25:28;;;;;;;16.37;8.80;;;;;;;;;;5014061;28;20686;-67
2023/01/26 10:27:53;;;;;;;16.97;8.87;;;;;;;;;;5013954;28;20226;-67
2023/01/26 10:30:18;;;;;;;16.47;9.07;;;;;;;;;;5013777;28;20221;-68
2023/01/26 10:32:44;;;;;;;20.03;9.07;;;;;;;;;;5014361;28;20269;-67
2023/01/26 10:35:14;;;;;;;15.37;8.17;;;;;;;;;;5013425;28;20642;-67
2023/01/26 10:37:39;;;;;;;23.73;14.43;;;;;;;;;;5014074;28;20541;-67
2023/01/26 10:40:06;;;;;;;21.03;9.90;;;;;;;;;;5014075;28;20213;-67
2023/01/26 10:42:32;;;;;;;20.50;10.40;;;;;;;;;;5013634;28;20208;-67
2023/01/26 10:44:58;;;;;;;17.87;7.67;;;;;;;;;;5013652;28;20217;-67
2023/01/26 10:47:24;;;;;;;13.17;6.93;;;;;;;;;;5013276;28;20230;-68
2023/01/26 10:49:50;;;;;;;16.40;7.33;;;;;;;;;;5011695;28;20221;-67
2023/01/26 10:52:17;;;;;;;15.67;6.50;;;;;;;;;;4994014;28;20246;-68
2023/01/26 10:54:43;;;;;;;16.63;7.33;;;;;;;;;;4993864;28;20227;-68
2023/01/26 10:57:18;;;;;;;15.95;7.00;;;;;;;;;;4976902;28;20225;-67
2023/01/26 10:59:56;;;;;;;17.88;8.90;;;;;;;;;;4993255;28;20995;-66
2023/01/26 11:02:23;;;;;;;18.20;8.55;;;;;;;;;;4993077;28;20209;-67
2023/01/26 11:05:02;;;;;;;15.73;7.40;;;;;;;;;;4994056;28;20225;-64
2023/01/26 11:07:30;;;;;;;17.08;7.72;;;;;;;;;;5008762;28;20228;-67
2023/01/26 11:09:57;;;;;;;18.80;7.65;;;;;;;;;;5013300;28;20679;-67
2023/01/26 11:12:23;;;;;;;16.47;7.13;;;;;;;;;;5010845;28;20303;-67
2023/01/26 11:15:00;;;;;;;22.55;8.50;;;;;;;;;;5013414;28;20687;-67
2023/01/26 11:17:25;;;;;;;16.40;7.35;;;;;;;;;;5012292;28;20278;-67
2023/01/26 11:19:55;;;;;;;19.80;7.45;;;;;;;;;;5013378;28;20303;-67
2023/01/26 11:22:23;;;;;;;22.95;10.98;;;;;;;;;;5010416;28;20283;-67
2023/01/26 11:24:51;;;;;;;23.13;9.23;;;;;;;;;;4995324;28;20690;-67
2023/01/26 11:27:20;;;;;;;17.25;7.50;;;;;;;;;;5012870;28;20684;-67
2023/01/26 11:29:49;;;;;;;19.50;8.27;;;;;;;;;;5012587;28;20548;-67
2023/01/26 11:32:24;;;;;;;21.13;6.65;;;;;;;;;;4994905;28;20217;-67
2023/01/26 11:35:04;;;;;;;15.63;5.88;;;;;;;;;;5005024;28;20255;-66
2023/01/26 11:37:42;;;;;;;16.52;7.00;;;;;;;;;;4993808;28;20223;-66
2023/01/26 11:40:14;;;;;;;17.17;6.35;;;;;;;;;;5012734;28;20351;-67
2023/01/26 11:43:04;;;;;;;14.00;5.50;;;;;;;;;;5013271;28;20212;-67
2023/01/26 11:45:32;;;;;;;15.18;5.65;;;;;;;;;;4995251;28;20663;-67
2023/01/26 11:47:57;;;;;;;14.77;5.43;;;;;;;;;;5012776;28;20227;-67
2023/01/26 11:50:32;;;;;;;14.77;5.00;;;;;;;;;;5006089;28;20217;-67
2023/01/26 11:53:02;;;;;;;15.75;5.55;;;;;;;;;;4975305;28;20354;-67
2023/01/26 11:55:30;;;;;;;16.02;5.45;;;;;;;;;;4975774;28;20233;-67
2023/01/26 11:58:00;;;;;;;15.20;5.93;;;;;;;;;;4975793;28;20205;-67
2023/01/26 12:00:32;;;;;;;16.27;5.90;;;;;;;;;;4992635;28;20695;-67
2023/01/26 12:02:58;;;;;;;13.68;5.18;;;;;;;;;;4975830;28;20233;-67
2023/01/26 12:05:25;;;;;;;14.85;5.20;;;;;;;;;;4992258;28;20205;-66
2023/01/26 12:07:55;;;;;;;13.70;4.72;;;;;;;;;;5005422;28;20238;-66
2023/01/26 12:10:23;;;;;;;16.85;4.88;;;;;;;;;;5031114;28;20216;-67
2023/01/26 12:12:52;;;;;;;14.48;4.35;;;;;;;;;;5032162;28;20212;-66
2023/01/26 12:15:18;;;;;;;16.17;4.40;;;;;;;;;;5031802;28;20223;-66
2023/01/26 12:17:50;;;;;;;13.27;4.78;;;;;;;;;;5031141;28;20204;-66
2023/01/26 12:20:15;;;;;;;13.30;3.83;;;;;;;;;;5031602;28;20219;-66
2023/01/26 12:22:41;;;;;;;16.17;4.72;;;;;;;;;;5027020;28;20303;-66
2023/01/26 12:25:10;;;;;;;15.55;4.25;;;;;;;;;;5032007;28;20780;-66
2023/01/26 12:27:37;;;;;;;13.40;3.88;;;;;;;;;;5032110;28;20289;-66
2023/01/26 12:30:17;;;;;;;13.32;3.65;;;;;;;;;;5030449;28;20220;-67
2023/01/26 12:32:43;;;;;;;18.15;5.50;;;;;;;;;;5030821;28;20208;-67
2023/01/26 12:35:10;;;;;;;15.55;4.38;;;;;;;;;;5031311;28;20286;-66
2023/01/26 12:37:38;;;;;;;13.50;3.60;;;;;;;;;;5032231;28;20521;-66
2023/01/26 12:40:08;;;;;;;15.60;4.03;;;;;;;;;;5030917;28;20219;-66
2023/01/26 12:42:40;;;;;;;13.63;3.78;;;;;;;;;;5032356;28;20211;-66
2023/01/26 12:45:06;;;;;;;15.75;3.22;;;;;;;;;;5031663;28;20242;-66
2023/01/26 12:47:37;;;;;;;12.43;3.22;;;;;;;;;;5030345;28;20681;-66
2023/01/26 12:50:10;;;;;;;11.57;3.00;;;;;;;;;;5030325;28;20208;-66
2023/01/26 12:52:37;;;;;;;14.10;3.53;;;;;;;;;;5031057;28;20211;-66
2023/01/26 12:55:11;;;;;;;14.60;3.47;;;;;;;;;;5031149;28;20234;-66
2023/01/26 12:57:39;;;;;;;12.90;3.28;;;;;;;;;;5031981;28;20207;-66
2023/01/26 13:00:08;;;;;;;13.82;3.28;;;;;;;;;;5031445;28;20278;-66
2023/01/26 13:02:34;;;;;;;11.10;2.88;;;;;;;;;;5030133;28;20212;-66
2023/01/26 13:05:00;;;;;;;14.52;3.10;;;;;;;;;;5030739;28;20212;-66
2023/01/26 13:07:28;;;;;;;12.00;3.35;;;;;;;;;;5012505;28;20347;-66
2023/01/26 13:10:19;;;;;;;14.98;3.40;;;;;;;;;;4992087;28;20672;-66
2023/01/26 13:12:46;;;;;;;12.00;3.30;;;;;;;;;;4992319;28;20219;-66
2023/01/26 13:15:13;;;;;;;12.38;2.88;;;;;;;;;;5005948;28;20256;-66
2023/01/26 13:17:40;;;;;;;16.48;3.75;;;;;;;;;;4992161;28;20213;-66
2023/01/26 13:20:22;;;;;;;13.82;3.78;;;;;;;;;;4992221;28;20216;-66
2023/01/26 13:22:47;;;;;;;14.38;3.40;;;;;;;;;;4994444;28;20226;-66
2023/01/26 13:25:15;;;;;;;12.88;3.30;;;;;;;;;;4990667;28;20676;-66
2023/01/26 13:27:45;;;;;;;13.00;3.53;;;;;;;;;;4992805;28;20224;-66
2023/01/26 13:30:33;;;;;;;12.82;2.88;;;;;;;;;;4992419;28;20231;-66
2023/01/26 13:33:08;;;;;;;13.57;3.63;;;;;;;;;;5011351;28;20584;-66
2023/01/26 13:35:33;;;;;;;10.35;2.97;;;;;;;;;;5010471;28;20231;-66
2023/01/26 13:37:59;;;;;;;13.40;3.15;;;;;;;;;;5010040;28;20208;-66
2023/01/26 13:40:34;;;;;;;10.52;2.70;;;;;;;;;;5011255;28;20219;-66
2023/01/26 13:43:02;;;;;;;12.52;2.90;;;;;;;;;;5012102;28;20211;-65
2023/01/26 13:45:44;;;;;;;12.70;4.22;;;;;;;;;;5010852;28;20215;-65
2023/01/26 13:48:12;;;;;;;12.98;3.17;;;;;;;;;;5010291;28;20212;-66
2023/01/26 13:50:37;;;;;;;12.30;3.13;;;;;;;;;;5004390;28;20212;-66
2023/01/26 13:53:21;;;;;;;12.93;3.20;;;;;;;;;;4994138;28;20225;-69
2023/01/26 13:55:47;;;;;;;12.00;2.67;;;;;;;;;;4995624;28;20217;-66
2023/01/26 13:58:14;;;;;;;13.48;3.20;;;;;;;;;;4993787;28;20220;-66
2023/01/26 14:00:39;;;;;;;12.82;3.28;;;;;;;;;;4998137;28;20299;-66
2023/01/26 14:03:04;;;;;;;11.68;2.60;;;;;;;;;;5004153;28;20300;-67
2023/01/26 14:05:30;;;;;;;11.18;2.70;;;;;;;;;;4993562;28;20217;-66
2023/01/26 14:07:55;;;;;;;11.65;2.63;;;;;;;;;;5022393;28;20232;-65
2023/01/26 14:10:21;;;;;;;11.88;2.72;;;;;;;;;;5034549;28;20216;-65
2023/01/26 14:12:47;;;;;;;8.68;2.40;;;;;;;;;;5034041;28;20208;-65
2023/01/26 14:15:24;;;;;;;15.25;3.10;;;;;;;;;;5017717;28;20224;-65
2023/01/26 14:17:51;;;;;;;12.07;2.85;;;;;;;;;;4997362;28;20706;-66
2023/01/26 14:20:18;;;;;;;10.88;2.60;;;;;;;;;;5029941;28;20208;-66
2023/01/26 14:22:43;;;;;;;11.60;2.70;;;;;;;;;;5015640;28;20209;-66
2023/01/26 14:25:08;;;;;;;9.63;2.40;;;;;;;;;;5014163;28;20267;-66
2023/01/26 14:27:34;;;;;;;9.68;2.42;;;;;;;;;;5014026;28;20594;-66
2023/01/26 14:30:00;;;;;;;9.90;2.30;;;;;;;;;;5014629;28;20212;-66
2023/01/26 14:32:28;;;;;;;10.55;2.60;;;;;;;;;;5002211;28;20557;-64
2023/01/26 14:34:55;;;;;;;8.52;2.20;;;;;;;;;;4994562;28;20328;-66
2023/01/26 14:37:21;;;;;;;9.73;3.30;;;;;;;;;;4994720;28;20224;-66
2023/01/26 14:39:46;;;;;;;7.75;2.38;;;;;;;;;;4994548;28;20209;-67
2023/01/26 14:42:13;;;;;;;9.32;2.50;;;;;;;;;;4994144;28;20221;-66
2023/01/26 14:44:39;;;;;;;8.40;1.90;;;;;;;;;;4994815;28;20263;-67
2023/01/26 14:47:06;;;;;;;8.73;2.28;;;;;;;;;;4993866;28;20213;-66
2023/01/26 14:49:51;;;;;;;8.52;2.20;;;;;;;;;;4994417;28;20631;-66
2023/01/26 14:52:24;;;;;;;8.27;2.03;;;;;;;;;;4994235;28;20275;-66
2023/01/26 14:54:50;;;;;;;9.23;3.13;;;;;;;;;;4994132;28;20220;-66
2023/01/26 14:57:17;;;;;;;7.68;2.42;;;;;;;;;;5002246;28;20254;-67
2023/01/26 14:59:43;;;;;;;8.35;1.70;;;;;;;;;;5011073;28;20217;-66
2023/01/26 15:02:15;;;;;;;6.03;1.60;;;;;;;;;;4982923;28;20213;-68